sensor_id;sensor_type;location;lat;lon;timestamp;P1;durP1;ratioP1;P2;durP2;ratioP2
66371;SDS011;53168;51.146;17.120;2024-01-30T00:00:45;16.12;;;15.49;;
66371;SDS011;53168;51.146;17.120;2024-01-30T00:03:39;14.77;;;14.53;;
66371;SDS011;53168;51.146;17.120;2024-01-30T00:06:13;15.25;;;15.01;;
66371;SDS011;53168;51.146;17.120;2024-01-30T00:08:52;15.17;;;15.04;;
66371;SDS011;53168;51.146;17.120;2024-01-30T00:11:26;16.20;;;15.99;;
66371;SDS011;53168;51.146;17.120;2024-01-30T00:14:00;15.97;;;15.86;;
66371;SDS011;53168;51.146;17.120;2024-01-30T00:16:36;15.92;;;15.75;;
66371;SDS011;53168;51.146;17.120;2024-01-30T00:19:10;16.55;;;16.13;;
66371;SDS011;53168;51.146;17.120;2024-01-30T00:21:45;16.04;;;15.72;;
66371;SDS011;53168;51.146;17.120;2024-01-30T00:24:19;15.18;;;14.90;;
66371;SDS011;53168;51.146;17.120;2024-01-30T00:40:21;15.76;;;15.15;;
66371;SDS011;53168;51.146;17.120;2024-01-30T00:42:55;16.02;;;15.60;;
66371;SDS011;53168;51.146;17.120;2024-01-30T00:45:30;14.77;;;14.54;;
66371;SDS011;53168;51.146;17.120;2024-01-30T00:48:05;14.58;;;14.47;;
66371;SDS011;53168;51.146;17.120;2024-01-30T00:50:40;14.08;;;13.90;;
66371;SDS011;53168;51.146;17.120;2024-01-30T00:53:14;13.77;;;13.62;;
66371;SDS011;53168;51.146;17.120;2024-01-30T00:55:48;14.09;;;13.83;;
66371;SDS011;53168;51.146;17.120;2024-01-30T00:58:23;13.62;;;13.45;;
66371;SDS011;53168;51.146;17.120;2024-01-30T01:00:57;13.86;;;13.73;;
66371;SDS011;53168;51.146;17.120;2024-01-30T01:03:32;13.16;;;12.99;;
66371;SDS011;53168;51.146;17.120;2024-01-30T01:06:06;13.35;;;13.11;;
66371;SDS011;53168;51.146;17.120;2024-01-30T01:08:41;13.43;;;13.28;;
66371;SDS011;53168;51.146;17.120;2024-01-30T01:11:16;13.18;;;13.07;;
66371;SDS011;53168;51.146;17.120;2024-01-30T01:13:51;12.58;;;12.53;;
66371;SDS011;53168;51.146;17.120;2024-01-30T01:16:25;12.82;;;12.71;;
66371;SDS011;53168;51.146;17.120;2024-01-30T01:19:00;12.90;;;12.74;;
66371;SDS011;53168;51.146;17.120;2024-01-30T01:21:34;12.97;;;12.74;;
66371;SDS011;53168;51.146;17.120;2024-01-30T01:24:09;13.54;;;13.42;;
66371;SDS011;53168;51.146;17.120;2024-01-30T01:26:43;13.29;;;13.09;;
66371;SDS011;53168;51.146;17.120;2024-01-30T01:29:18;12.75;;;12.70;;
66371;SDS011;53168;51.146;17.120;2024-01-30T01:31:58;13.09;;;12.92;;
66371;SDS011;53168;51.146;17.120;2024-01-30T01:34:33;12.69;;;12.58;;
66371;SDS011;53168;51.146;17.120;2024-01-30T01:37:07;13.06;;;12.99;;
66371;SDS011;53168;51.146;17.120;2024-01-30T01:39:42;12.71;;;12.66;;
66371;SDS011;53168;51.146;17.120;2024-01-30T01:42:16;12.64;;;12.59;;
66371;SDS011;53168;51.146;17.120;2024-01-30T01:44:52;13.82;;;13.76;;
66371;SDS011;53168;51.146;17.120;2024-01-30T01:47:26;12.47;;;12.40;;
66371;SDS011;53168;51.146;17.120;2024-01-30T01:50:01;12.39;;;12.27;;
66371;SDS011;53168;51.146;17.120;2024-01-30T01:52:37;12.70;;;12.56;;
66371;SDS011;53168;51.146;17.120;2024-01-30T01:55:14;11.56;;;11.51;;
66371;SDS011;53168;51.146;17.120;2024-01-30T01:57:54;11.91;;;11.87;;
66371;SDS011;53168;51.146;17.120;2024-01-30T02:00:30;12.13;;;12.12;;
66371;SDS011;53168;51.146;17.120;2024-01-30T02:03:05;11.86;;;11.82;;
66371;SDS011;53168;51.146;17.120;2024-01-30T02:05:44;11.79;;;11.67;;
66371;SDS011;53168;51.146;17.120;2024-01-30T02:08:23;11.61;;;11.53;;
66371;SDS011;53168;51.146;17.120;2024-01-30T02:11:00;11.71;;;11.63;;
66371;SDS011;53168;51.146;17.120;2024-01-30T02:13:35;11.31;;;11.23;;
66371;SDS011;53168;51.146;17.120;2024-01-30T02:16:11;11.12;;;10.98;;
66371;SDS011;53168;51.146;17.120;2024-01-30T02:18:47;11.36;;;11.25;;
66371;SDS011;53168;51.146;17.120;2024-01-30T02:21:21;10.65;;;10.63;;
66371;SDS011;53168;51.146;17.120;2024-01-30T02:23:56;11.46;;;11.40;;
66371;SDS011;53168;51.146;17.120;2024-01-30T02:26:34;10.25;;;10.23;;
66371;SDS011;53168;51.146;17.120;2024-01-30T02:29:08;10.48;;;10.44;;
66371;SDS011;53168;51.146;17.120;2024-01-30T02:31:43;10.58;;;10.47;;
66371;SDS011;53168;51.146;17.120;2024-01-30T02:34:18;10.38;;;10.20;;
66371;SDS011;53168;51.146;17.120;2024-01-30T02:36:55;10.08;;;9.99;;
66371;SDS011;53168;51.146;17.120;2024-01-30T02:39:29;11.05;;;10.97;;
66371;SDS011;53168;51.146;17.120;2024-01-30T02:42:04;10.97;;;10.84;;
66371;SDS011;53168;51.146;17.120;2024-01-30T02:44:39;9.91;;;9.82;;
66371;SDS011;53168;51.146;17.120;2024-01-30T02:47:13;12.32;;;12.12;;
66371;SDS011;53168;51.146;17.120;2024-01-30T02:49:50;10.78;;;10.60;;
66371;SDS011;53168;51.146;17.120;2024-01-30T02:52:25;11.94;;;11.72;;
66371;SDS011;53168;51.146;17.120;2024-01-30T02:55:00;13.35;;;13.21;;
66371;SDS011;53168;51.146;17.120;2024-01-30T02:57:35;12.42;;;12.33;;
66371;SDS011;53168;51.146;17.120;2024-01-30T03:00:12;13.31;;;13.13;;
66371;SDS011;53168;51.146;17.120;2024-01-30T03:02:47;12.42;;;12.37;;
66371;SDS011;53168;51.146;17.120;2024-01-30T03:05:22;12.42;;;12.33;;
66371;SDS011;53168;51.146;17.120;2024-01-30T03:07:56;12.99;;;12.83;;
66371;SDS011;53168;51.146;17.120;2024-01-30T03:10:31;14.01;;;13.87;;
66371;SDS011;53168;51.146;17.120;2024-01-30T03:13:06;13.80;;;13.70;;
66371;SDS011;53168;51.146;17.120;2024-01-30T03:15:40;13.65;;;13.47;;
66371;SDS011;53168;51.146;17.120;2024-01-30T03:18:14;14.25;;;14.06;;
66371;SDS011;53168;51.146;17.120;2024-01-30T03:20:49;14.58;;;14.47;;
66371;SDS011;53168;51.146;17.120;2024-01-30T03:23:23;14.27;;;14.26;;
66371;SDS011;53168;51.146;17.120;2024-01-30T03:26:16;15.07;;;14.59;;
66371;SDS011;53168;51.146;17.120;2024-01-30T03:28:50;14.23;;;14.07;;
66371;SDS011;53168;51.146;17.120;2024-01-30T03:31:25;15.58;;;15.30;;
66371;SDS011;53168;51.146;17.120;2024-01-30T03:34:00;15.16;;;14.90;;
66371;SDS011;53168;51.146;17.120;2024-01-30T03:42:32;15.65;;;15.24;;
66371;SDS011;53168;51.146;17.120;2024-01-30T03:45:07;15.93;;;15.77;;
66371;SDS011;53168;51.146;17.120;2024-01-30T03:47:44;15.95;;;15.90;;
66371;SDS011;53168;51.146;17.120;2024-01-30T03:50:18;16.84;;;16.64;;
66371;SDS011;53168;51.146;17.120;2024-01-30T03:52:54;18.09;;;17.82;;
66371;SDS011;53168;51.146;17.120;2024-01-30T03:55:28;18.10;;;17.76;;
66371;SDS011;53168;51.146;17.120;2024-01-30T03:58:03;17.85;;;17.48;;
66371;SDS011;53168;51.146;17.120;2024-01-30T04:00:38;17.95;;;17.63;;
66371;SDS011;53168;51.146;17.120;2024-01-30T04:03:13;17.89;;;17.70;;
66371;SDS011;53168;51.146;17.120;2024-01-30T04:05:48;16.58;;;16.28;;
66371;SDS011;53168;51.146;17.120;2024-01-30T04:08:23;16.13;;;15.90;;
66371;SDS011;53168;51.146;17.120;2024-01-30T04:10:58;17.42;;;17.32;;
66371;SDS011;53168;51.146;17.120;2024-01-30T04:13:36;17.65;;;17.52;;
66371;SDS011;53168;51.146;17.120;2024-01-30T04:16:20;18.60;;;18.31;;
66371;SDS011;53168;51.146;17.120;2024-01-30T04:18:55;18.17;;;18.00;;
66371;SDS011;53168;51.146;17.120;2024-01-30T04:21:32;17.87;;;17.68;;
66371;SDS011;53168;51.146;17.120;2024-01-30T04:24:07;17.69;;;17.32;;
66371;SDS011;53168;51.146;17.120;2024-01-30T04:26:41;19.29;;;19.14;;
66371;SDS011;53168;51.146;17.120;2024-01-30T04:29:16;19.02;;;18.91;;
66371;SDS011;53168;51.146;17.120;2024-01-30T04:31:52;20.62;;;20.20;;
66371;SDS011;53168;51.146;17.120;2024-01-30T04:34:26;19.58;;;19.26;;
66371;SDS011;53168;51.146;17.120;2024-01-30T04:37:01;20.65;;;20.49;;
66371;SDS011;53168;51.146;17.120;2024-01-30T04:39:35;20.88;;;20.48;;
66371;SDS011;53168;51.146;17.120;2024-01-30T04:42:13;19.27;;;19.04;;
66371;SDS011;53168;51.146;17.120;2024-01-30T04:44:48;18.31;;;18.14;;
66371;SDS011;53168;51.146;17.120;2024-01-30T04:47:22;18.30;;;18.02;;
66371;SDS011;53168;51.146;17.120;2024-01-30T04:49:57;16.84;;;16.62;;
66371;SDS011;53168;51.146;17.120;2024-01-30T04:52:32;18.59;;;18.37;;
66371;SDS011;53168;51.146;17.120;2024-01-30T04:55:07;19.62;;;19.40;;
66371;SDS011;53168;51.146;17.120;2024-01-30T04:57:42;19.43;;;19.12;;
66371;SDS011;53168;51.146;17.120;2024-01-30T05:00:17;19.98;;;19.76;;
66371;SDS011;53168;51.146;17.120;2024-01-30T05:02:52;20.37;;;19.89;;
66371;SDS011;53168;51.146;17.120;2024-01-30T05:05:27;19.71;;;19.32;;
66371;SDS011;53168;51.146;17.120;2024-01-30T05:08:02;20.64;;;20.19;;
66371;SDS011;53168;51.146;17.120;2024-01-30T05:22:07;16.35;;;16.24;;
66371;SDS011;53168;51.146;17.120;2024-01-30T05:24:38;16.57;;;16.45;;
66371;SDS011;53168;51.146;17.120;2024-01-30T05:27:08;18.59;;;18.44;;
66371;SDS011;53168;51.146;17.120;2024-01-30T05:29:40;18.67;;;18.49;;
66371;SDS011;53168;51.146;17.120;2024-01-30T05:32:11;18.19;;;17.77;;
66371;SDS011;53168;51.146;17.120;2024-01-30T05:34:41;17.85;;;17.67;;
66371;SDS011;53168;51.146;17.120;2024-01-30T05:37:14;18.54;;;18.34;;
66371;SDS011;53168;51.146;17.120;2024-01-30T05:39:45;18.89;;;18.63;;
66371;SDS011;53168;51.146;17.120;2024-01-30T05:42:16;19.65;;;19.48;;
66371;SDS011;53168;51.146;17.120;2024-01-30T05:44:46;20.37;;;20.19;;
66371;SDS011;53168;51.146;17.120;2024-01-30T05:47:17;19.57;;;19.40;;
66371;SDS011;53168;51.146;17.120;2024-01-30T05:49:47;19.09;;;18.88;;
66371;SDS011;53168;51.146;17.120;2024-01-30T05:52:18;18.13;;;18.02;;
66371;SDS011;53168;51.146;17.120;2024-01-30T05:54:48;17.56;;;17.49;;
66371;SDS011;53168;51.146;17.120;2024-01-30T05:57:19;17.83;;;17.67;;
66371;SDS011;53168;51.146;17.120;2024-01-30T05:59:50;18.80;;;18.53;;
66371;SDS011;53168;51.146;17.120;2024-01-30T06:02:20;18.17;;;18.10;;
66371;SDS011;53168;51.146;17.120;2024-01-30T06:04:50;18.15;;;18.02;;
66371;SDS011;53168;51.146;17.120;2024-01-30T06:07:21;17.16;;;17.01;;
66371;SDS011;53168;51.146;17.120;2024-01-30T06:09:51;16.56;;;16.48;;
66371;SDS011;53168;51.146;17.120;2024-01-30T06:12:22;17.38;;;17.28;;
66371;SDS011;53168;51.146;17.120;2024-01-30T06:14:53;19.13;;;18.90;;
66371;SDS011;53168;51.146;17.120;2024-01-30T06:17:26;18.93;;;18.73;;
66371;SDS011;53168;51.146;17.120;2024-01-30T06:19:57;19.79;;;19.55;;
66371;SDS011;53168;51.146;17.120;2024-01-30T06:22:28;19.73;;;19.45;;
66371;SDS011;53168;51.146;17.120;2024-01-30T06:24:59;18.53;;;18.34;;
66371;SDS011;53168;51.146;17.120;2024-01-30T06:27:30;22.11;;;21.63;;
66371;SDS011;53168;51.146;17.120;2024-01-30T06:30:01;23.73;;;23.38;;
66371;SDS011;53168;51.146;17.120;2024-01-30T06:32:34;21.98;;;21.73;;
66371;SDS011;53168;51.146;17.120;2024-01-30T06:35:06;21.30;;;20.92;;
66371;SDS011;53168;51.146;17.120;2024-01-30T06:37:38;19.69;;;19.54;;
66371;SDS011;53168;51.146;17.120;2024-01-30T06:40:09;19.81;;;19.61;;
66371;SDS011;53168;51.146;17.120;2024-01-30T06:42:41;21.05;;;20.86;;
66371;SDS011;53168;51.146;17.120;2024-01-30T06:45:11;21.74;;;21.26;;
66371;SDS011;53168;51.146;17.120;2024-01-30T06:47:42;21.68;;;21.06;;
66371;SDS011;53168;51.146;17.120;2024-01-30T06:50:13;20.66;;;20.56;;
66371;SDS011;53168;51.146;17.120;2024-01-30T06:52:44;20.27;;;20.17;;
66371;SDS011;53168;51.146;17.120;2024-01-30T06:55:14;19.84;;;19.56;;
66371;SDS011;53168;51.146;17.120;2024-01-30T06:57:45;20.01;;;19.57;;
66371;SDS011;53168;51.146;17.120;2024-01-30T07:00:19;20.85;;;20.27;;
66371;SDS011;53168;51.146;17.120;2024-01-30T07:02:50;20.42;;;20.19;;
66371;SDS011;53168;51.146;17.120;2024-01-30T07:05:21;19.11;;;18.95;;
66371;SDS011;53168;51.146;17.120;2024-01-30T07:07:51;17.58;;;17.35;;
66371;SDS011;53168;51.146;17.120;2024-01-30T07:10:22;15.52;;;15.37;;
66371;SDS011;53168;51.146;17.120;2024-01-30T07:12:53;14.77;;;14.65;;
66371;SDS011;53168;51.146;17.120;2024-01-30T07:15:24;15.40;;;15.33;;
66371;SDS011;53168;51.146;17.120;2024-01-30T07:17:54;15.08;;;14.93;;
66371;SDS011;53168;51.146;17.120;2024-01-30T07:20:26;16.06;;;15.84;;
66371;SDS011;53168;51.146;17.120;2024-01-30T07:22:58;16.37;;;16.16;;
66371;SDS011;53168;51.146;17.120;2024-01-30T07:25:29;17.08;;;16.85;;
66371;SDS011;53168;51.146;17.120;2024-01-30T07:28:04;17.87;;;17.56;;
66371;SDS011;53168;51.146;17.120;2024-01-30T07:30:35;18.65;;;18.56;;
66371;SDS011;53168;51.146;17.120;2024-01-30T07:33:06;19.17;;;18.96;;
66371;SDS011;53168;51.146;17.120;2024-01-30T07:35:38;20.52;;;20.23;;
66371;SDS011;53168;51.146;17.120;2024-01-30T07:38:09;20.23;;;20.03;;
66371;SDS011;53168;51.146;17.120;2024-01-30T07:40:40;20.26;;;19.91;;
66371;SDS011;53168;51.146;17.120;2024-01-30T07:43:11;20.19;;;20.02;;
66371;SDS011;53168;51.146;17.120;2024-01-30T07:45:42;19.78;;;19.58;;
66371;SDS011;53168;51.146;17.120;2024-01-30T07:48:13;19.38;;;19.10;;
66371;SDS011;53168;51.146;17.120;2024-01-30T07:50:44;19.35;;;19.06;;
66371;SDS011;53168;51.146;17.120;2024-01-30T07:53:14;19.57;;;19.44;;
66371;SDS011;53168;51.146;17.120;2024-01-30T07:55:45;19.97;;;19.72;;
66371;SDS011;53168;51.146;17.120;2024-01-30T07:58:15;20.23;;;20.05;;
66371;SDS011;53168;51.146;17.120;2024-01-30T08:00:46;20.12;;;19.96;;
66371;SDS011;53168;51.146;17.120;2024-01-30T08:03:19;20.29;;;20.15;;
66371;SDS011;53168;51.146;17.120;2024-01-30T08:05:49;20.26;;;20.09;;
66371;SDS011;53168;51.146;17.120;2024-01-30T08:08:20;18.92;;;18.77;;
66371;SDS011;53168;51.146;17.120;2024-01-30T08:10:51;19.43;;;19.15;;
66371;SDS011;53168;51.146;17.120;2024-01-30T08:13:21;19.64;;;19.49;;
66371;SDS011;53168;51.146;17.120;2024-01-30T08:15:52;18.70;;;18.42;;
66371;SDS011;53168;51.146;17.120;2024-01-30T08:18:23;18.42;;;18.12;;
66371;SDS011;53168;51.146;17.120;2024-01-30T08:20:55;17.77;;;17.44;;
66371;SDS011;53168;51.146;17.120;2024-01-30T08:23:26;17.72;;;17.37;;
66371;SDS011;53168;51.146;17.120;2024-01-30T08:25:56;18.78;;;18.50;;
66371;SDS011;53168;51.146;17.120;2024-01-30T08:28:27;18.21;;;17.87;;
66371;SDS011;53168;51.146;17.120;2024-01-30T08:30:58;18.98;;;18.45;;
66371;SDS011;53168;51.146;17.120;2024-01-30T08:33:32;17.90;;;17.63;;
66371;SDS011;53168;51.146;17.120;2024-01-30T08:36:06;17.79;;;17.56;;
66371;SDS011;53168;51.146;17.120;2024-01-30T08:38:37;18.71;;;18.27;;
66371;SDS011;53168;51.146;17.120;2024-01-30T08:41:10;17.24;;;17.00;;
66371;SDS011;53168;51.146;17.120;2024-01-30T08:43:41;16.94;;;16.70;;
66371;SDS011;53168;51.146;17.120;2024-01-30T08:46:12;14.48;;;14.14;;
66371;SDS011;53168;51.146;17.120;2024-01-30T08:48:46;13.25;;;13.08;;
66371;SDS011;53168;51.146;17.120;2024-01-30T08:51:20;13.30;;;13.16;;
66371;SDS011;53168;51.146;17.120;2024-01-30T08:53:51;13.45;;;13.35;;
66371;SDS011;53168;51.146;17.120;2024-01-30T08:56:24;12.99;;;12.88;;
66371;SDS011;53168;51.146;17.120;2024-01-30T09:00:22;12.34;;;12.09;;
66371;SDS011;53168;51.146;17.120;2024-01-30T09:02:56;12.97;;;12.91;;
66371;SDS011;53168;51.146;17.120;2024-01-30T09:05:32;12.48;;;12.39;;
66371;SDS011;53168;51.146;17.120;2024-01-30T09:08:09;11.55;;;11.52;;
66371;SDS011;53168;51.146;17.120;2024-01-30T09:10:44;13.10;;;12.97;;
66371;SDS011;53168;51.146;17.120;2024-01-30T09:13:21;11.56;;;11.52;;
66371;SDS011;53168;51.146;17.120;2024-01-30T09:15:56;11.94;;;11.88;;
66371;SDS011;53168;51.146;17.120;2024-01-30T09:18:31;12.71;;;12.57;;
66371;SDS011;53168;51.146;17.120;2024-01-30T09:21:09;10.62;;;10.50;;
66371;SDS011;53168;51.146;17.120;2024-01-30T09:23:47;9.62;;;9.52;;
66371;SDS011;53168;51.146;17.120;2024-01-30T09:26:21;10.34;;;10.30;;
66371;SDS011;53168;51.146;17.120;2024-01-30T09:28:58;9.17;;;9.15;;
66371;SDS011;53168;51.146;17.120;2024-01-30T09:31:34;8.98;;;8.98;;
66371;SDS011;53168;51.146;17.120;2024-01-30T09:34:09;8.53;;;8.53;;
66371;SDS011;53168;51.146;17.120;2024-01-30T09:36:45;8.15;;;8.13;;
66371;SDS011;53168;51.146;17.120;2024-01-30T09:39:20;8.14;;;8.12;;
66371;SDS011;53168;51.146;17.120;2024-01-30T09:42:00;7.39;;;7.39;;
66371;SDS011;53168;51.146;17.120;2024-01-30T09:44:52;7.55;;;7.54;;
66371;SDS011;53168;51.146;17.120;2024-01-30T09:47:32;7.59;;;7.55;;
66371;SDS011;53168;51.146;17.120;2024-01-30T09:50:16;7.89;;;7.83;;
66371;SDS011;53168;51.146;17.120;2024-01-30T09:52:51;7.63;;;7.62;;
66371;SDS011;53168;51.146;17.120;2024-01-30T09:55:31;7.86;;;7.83;;
66371;SDS011;53168;51.146;17.120;2024-01-30T09:58:08;7.82;;;7.65;;
66371;SDS011;53168;51.146;17.120;2024-01-30T10:00:44;7.82;;;7.75;;
66371;SDS011;53168;51.146;17.120;2024-01-30T10:03:19;7.52;;;7.52;;
66371;SDS011;53168;51.146;17.120;2024-01-30T10:05:55;7.27;;;7.19;;
66371;SDS011;53168;51.146;17.120;2024-01-30T10:08:31;11.04;;;10.78;;
66371;SDS011;53168;51.146;17.120;2024-01-30T10:11:06;9.15;;;9.01;;
66371;SDS011;53168;51.146;17.120;2024-01-30T10:13:43;8.32;;;8.30;;
66371;SDS011;53168;51.146;17.120;2024-01-30T10:16:18;7.64;;;7.64;;
66371;SDS011;53168;51.146;17.120;2024-01-30T10:18:54;7.92;;;7.91;;
66371;SDS011;53168;51.146;17.120;2024-01-30T10:21:29;9.34;;;9.26;;
66371;SDS011;53168;51.146;17.120;2024-01-30T10:24:04;7.78;;;7.75;;
66371;SDS011;53168;51.146;17.120;2024-01-30T10:26:44;7.77;;;7.76;;
66371;SDS011;53168;51.146;17.120;2024-01-30T10:29:19;6.98;;;6.94;;
66371;SDS011;53168;51.146;17.120;2024-01-30T10:32:00;6.47;;;6.45;;
66371;SDS011;53168;51.146;17.120;2024-01-30T10:34:37;7.14;;;7.13;;
66371;SDS011;53168;51.146;17.120;2024-01-30T10:37:11;7.00;;;7.00;;
66371;SDS011;53168;51.146;17.120;2024-01-30T10:39:50;6.51;;;6.51;;
66371;SDS011;53168;51.146;17.120;2024-01-30T10:42:32;7.60;;;7.59;;
66371;SDS011;53168;51.146;17.120;2024-01-30T10:45:11;7.72;;;7.68;;
66371;SDS011;53168;51.146;17.120;2024-01-30T10:47:48;7.10;;;7.06;;
66371;SDS011;53168;51.146;17.120;2024-01-30T10:50:27;7.44;;;7.42;;
66371;SDS011;53168;51.146;17.120;2024-01-30T10:53:15;7.53;;;7.53;;
66371;SDS011;53168;51.146;17.120;2024-01-30T10:55:53;7.52;;;7.46;;
66371;SDS011;53168;51.146;17.120;2024-01-30T10:58:30;7.59;;;7.51;;
66371;SDS011;53168;51.146;17.120;2024-01-30T11:01:07;8.15;;;8.10;;
66371;SDS011;53168;51.146;17.120;2024-01-30T11:03:45;7.36;;;7.33;;
66371;SDS011;53168;51.146;17.120;2024-01-30T11:09:38;6.82;;;6.76;;
66371;SDS011;53168;51.146;17.120;2024-01-30T11:12:25;7.21;;;7.19;;
66371;SDS011;53168;51.146;17.120;2024-01-30T11:15:07;7.56;;;7.47;;
66371;SDS011;53168;51.146;17.120;2024-01-30T11:17:50;6.45;;;6.40;;
66371;SDS011;53168;51.146;17.120;2024-01-30T11:20:27;6.17;;;6.13;;
66371;SDS011;53168;51.146;17.120;2024-01-30T11:23:05;7.26;;;7.25;;
66371;SDS011;53168;51.146;17.120;2024-01-30T11:25:43;6.69;;;6.69;;
66371;SDS011;53168;51.146;17.120;2024-01-30T11:28:18;7.31;;;7.28;;
66371;SDS011;53168;51.146;17.120;2024-01-30T11:31:04;7.07;;;6.98;;
66371;SDS011;53168;51.146;17.120;2024-01-30T11:33:53;6.58;;;6.54;;
66371;SDS011;53168;51.146;17.120;2024-01-30T11:36:29;6.54;;;6.49;;
66371;SDS011;53168;51.146;17.120;2024-01-30T11:39:08;6.66;;;6.61;;
66371;SDS011;53168;51.146;17.120;2024-01-30T11:41:44;7.94;;;7.90;;
66371;SDS011;53168;51.146;17.120;2024-01-30T11:44:22;7.38;;;7.31;;
66371;SDS011;53168;51.146;17.120;2024-01-30T11:46:57;6.98;;;6.97;;
66371;SDS011;53168;51.146;17.120;2024-01-30T11:49:33;6.05;;;6.05;;
66371;SDS011;53168;51.146;17.120;2024-01-30T11:52:08;6.90;;;6.89;;
66371;SDS011;53168;51.146;17.120;2024-01-30T11:54:44;6.99;;;6.99;;
66371;SDS011;53168;51.146;17.120;2024-01-30T11:57:19;6.52;;;6.52;;
66371;SDS011;53168;51.146;17.120;2024-01-30T11:59:53;6.14;;;6.14;;
66371;SDS011;53168;51.146;17.120;2024-01-30T12:02:32;6.34;;;6.34;;
66371;SDS011;53168;51.146;17.120;2024-01-30T12:05:08;6.72;;;6.72;;
66371;SDS011;53168;51.146;17.120;2024-01-30T12:07:45;6.43;;;6.43;;
66371;SDS011;53168;51.146;17.120;2024-01-30T12:10:20;6.53;;;6.52;;
66371;SDS011;53168;51.146;17.120;2024-01-30T12:12:57;6.52;;;6.48;;
66371;SDS011;53168;51.146;17.120;2024-01-30T12:15:36;5.85;;;5.82;;
66371;SDS011;53168;51.146;17.120;2024-01-30T12:18:11;5.77;;;5.77;;
66371;SDS011;53168;51.146;17.120;2024-01-30T12:20:58;6.54;;;6.54;;
66371;SDS011;53168;51.146;17.120;2024-01-30T12:23:33;6.59;;;6.59;;
66371;SDS011;53168;51.146;17.120;2024-01-30T12:26:10;5.94;;;5.94;;
66371;SDS011;53168;51.146;17.120;2024-01-30T12:28:50;5.80;;;5.80;;
66371;SDS011;53168;51.146;17.120;2024-01-30T12:31:28;6.36;;;6.36;;
66371;SDS011;53168;51.146;17.120;2024-01-30T12:34:06;5.81;;;5.81;;
66371;SDS011;53168;51.146;17.120;2024-01-30T12:36:40;6.27;;;6.27;;
66371;SDS011;53168;51.146;17.120;2024-01-30T12:39:15;6.09;;;6.08;;
66371;SDS011;53168;51.146;17.120;2024-01-30T12:41:51;6.05;;;6.04;;
66371;SDS011;53168;51.146;17.120;2024-01-30T12:44:26;6.27;;;6.26;;
66371;SDS011;53168;51.146;17.120;2024-01-30T12:47:04;6.28;;;6.28;;
66371;SDS011;53168;51.146;17.120;2024-01-30T12:49:41;6.07;;;6.07;;
66371;SDS011;53168;51.146;17.120;2024-01-30T12:52:16;6.72;;;6.72;;
66371;SDS011;53168;51.146;17.120;2024-01-30T12:54:52;6.81;;;6.80;;
66371;SDS011;53168;51.146;17.120;2024-01-30T12:57:28;7.03;;;7.03;;
66371;SDS011;53168;51.146;17.120;2024-01-30T13:00:03;7.40;;;7.39;;
66371;SDS011;53168;51.146;17.120;2024-01-30T13:02:39;6.89;;;6.89;;
66371;SDS011;53168;51.146;17.120;2024-01-30T13:05:18;7.57;;;7.57;;
66371;SDS011;53168;51.146;17.120;2024-01-30T13:07:54;7.29;;;7.29;;
66371;SDS011;53168;51.146;17.120;2024-01-30T13:10:29;7.69;;;7.69;;
66371;SDS011;53168;51.146;17.120;2024-01-30T13:13:11;7.76;;;7.76;;
66371;SDS011;53168;51.146;17.120;2024-01-30T13:15:49;6.89;;;6.89;;
66371;SDS011;53168;51.146;17.120;2024-01-30T13:18:24;7.38;;;7.38;;
66371;SDS011;53168;51.146;17.120;2024-01-30T13:20:59;7.67;;;7.67;;
66371;SDS011;53168;51.146;17.120;2024-01-30T13:23:33;6.76;;;6.76;;
66371;SDS011;53168;51.146;17.120;2024-01-30T13:26:08;7.78;;;7.78;;
66371;SDS011;53168;51.146;17.120;2024-01-30T13:28:43;7.36;;;7.36;;
66371;SDS011;53168;51.146;17.120;2024-01-30T13:31:20;7.68;;;7.63;;
66371;SDS011;53168;51.146;17.120;2024-01-30T13:33:55;7.74;;;7.74;;
66371;SDS011;53168;51.146;17.120;2024-01-30T13:36:33;8.81;;;8.80;;
66371;SDS011;53168;51.146;17.120;2024-01-30T13:39:07;8.58;;;8.54;;
66371;SDS011;53168;51.146;17.120;2024-01-30T13:41:42;7.57;;;7.50;;
66371;SDS011;53168;51.146;17.120;2024-01-30T13:44:21;7.35;;;7.30;;
66371;SDS011;53168;51.146;17.120;2024-01-30T13:46:57;7.44;;;7.42;;
66371;SDS011;53168;51.146;17.120;2024-01-30T13:49:33;8.14;;;8.10;;
66371;SDS011;53168;51.146;17.120;2024-01-30T13:52:08;8.79;;;8.78;;
66371;SDS011;53168;51.146;17.120;2024-01-30T13:54:43;8.86;;;8.79;;
66371;SDS011;53168;51.146;17.120;2024-01-30T13:57:18;8.17;;;8.09;;
66371;SDS011;53168;51.146;17.120;2024-01-30T14:21:45;9.67;;;9.67;;
66371;SDS011;53168;51.146;17.120;2024-01-30T14:24:21;9.38;;;9.36;;
66371;SDS011;53168;51.146;17.120;2024-01-30T14:26:56;9.81;;;9.77;;
66371;SDS011;53168;51.146;17.120;2024-01-30T14:29:30;10.05;;;9.95;;
66371;SDS011;53168;51.146;17.120;2024-01-30T14:32:06;12.74;;;12.61;;
66371;SDS011;53168;51.146;17.120;2024-01-30T14:34:41;13.38;;;13.33;;
66371;SDS011;53168;51.146;17.120;2024-01-30T14:37:17;12.05;;;11.92;;
66371;SDS011;53168;51.146;17.120;2024-01-30T14:39:55;12.05;;;11.88;;
66371;SDS011;53168;51.146;17.120;2024-01-30T14:42:29;10.93;;;10.84;;
66371;SDS011;53168;51.146;17.120;2024-01-30T14:45:08;10.79;;;10.75;;
66371;SDS011;53168;51.146;17.120;2024-01-30T14:47:43;11.53;;;11.47;;
66371;SDS011;53168;51.146;17.120;2024-01-30T14:50:22;12.38;;;12.20;;
66371;SDS011;53168;51.146;17.120;2024-01-30T14:52:58;11.54;;;11.47;;
66371;SDS011;53168;51.146;17.120;2024-01-30T14:55:32;10.98;;;10.96;;
66371;SDS011;53168;51.146;17.120;2024-01-30T14:58:10;10.76;;;10.74;;
66371;SDS011;53168;51.146;17.120;2024-01-30T15:00:45;11.53;;;11.48;;
66371;SDS011;53168;51.146;17.120;2024-01-30T15:03:20;12.17;;;12.10;;
66371;SDS011;53168;51.146;17.120;2024-01-30T15:05:57;11.69;;;11.64;;
66371;SDS011;53168;51.146;17.120;2024-01-30T15:08:34;12.02;;;11.97;;
66371;SDS011;53168;51.146;17.120;2024-01-30T15:11:09;12.28;;;12.20;;
66371;SDS011;53168;51.146;17.120;2024-01-30T15:13:45;13.37;;;13.32;;
66371;SDS011;53168;51.146;17.120;2024-01-30T15:16:21;14.98;;;14.80;;
66371;SDS011;53168;51.146;17.120;2024-01-30T15:18:59;15.70;;;15.34;;
66371;SDS011;53168;51.146;17.120;2024-01-30T15:21:34;14.77;;;14.64;;
66371;SDS011;53168;51.146;17.120;2024-01-30T15:24:09;20.13;;;20.04;;
66371;SDS011;53168;51.146;17.120;2024-01-30T15:26:46;19.79;;;19.47;;
66371;SDS011;53168;51.146;17.120;2024-01-30T15:29:25;18.76;;;18.40;;
66371;SDS011;53168;51.146;17.120;2024-01-30T15:31:59;15.38;;;15.24;;
66371;SDS011;53168;51.146;17.120;2024-01-30T15:34:36;15.42;;;15.25;;
66371;SDS011;53168;51.146;17.120;2024-01-30T15:37:14;17.76;;;17.59;;
66371;SDS011;53168;51.146;17.120;2024-01-30T15:39:54;19.03;;;18.82;;
66371;SDS011;53168;51.146;17.120;2024-01-30T15:42:28;18.97;;;18.67;;
66371;SDS011;53168;51.146;17.120;2024-01-30T15:45:04;15.84;;;15.70;;
66371;SDS011;53168;51.146;17.120;2024-01-30T15:47:40;16.33;;;16.25;;
66371;SDS011;53168;51.146;17.120;2024-01-30T15:50:29;16.76;;;16.72;;
66371;SDS011;53168;51.146;17.120;2024-01-30T15:53:31;16.35;;;15.89;;
66371;SDS011;53168;51.146;17.120;2024-01-30T15:56:10;16.23;;;16.04;;
66371;SDS011;53168;51.146;17.120;2024-01-30T15:58:48;15.70;;;15.57;;